sensor_id;sensor_type;location;lat;lon;timestamp;P1;durP1;ratioP1;P2;durP2;ratioP2
1460;SDS011;724;49.910;12.530;2022-08-03T00:02:02;4.30;;;4.00;;
1460;SDS011;724;49.910;12.530;2022-08-03T00:04:29;4.10;;;3.90;;
1460;SDS011;724;49.910;12.530;2022-08-03T00:06:56;4.00;;;3.80;;
1460;SDS011;724;49.910;12.530;2022-08-03T00:09:22;4.50;;;4.20;;
1460;SDS011;724;49.910;12.530;2022-08-03T00:11:50;4.50;;;4.20;;
1460;SDS011;724;49.910;12.530;2022-08-03T00:14:17;4.30;;;4.00;;
1460;SDS011;724;49.910;12.530;2022-08-03T00:16:44;4.30;;;4.00;;
1460;SDS011;724;49.910;12.530;2022-08-03T00:19:10;4.30;;;4.00;;
1460;SDS011;724;49.910;12.530;2022-08-03T00:21:37;4.33;;;4.03;;
1460;SDS011;724;49.910;12.530;2022-08-03T00:24:04;4.10;;;3.90;;
1460;SDS011;724;49.910;12.530;2022-08-03T00:26:31;4.10;;;3.90;;
1460;SDS011;724;49.910;12.530;2022-08-03T00:28:59;4.60;;;4.30;;
1460;SDS011;724;49.910;12.530;2022-08-03T00:31:26;4.30;;;4.00;;
1460;SDS011;724;49.910;12.530;2022-08-03T00:33:53;3.90;;;3.70;;
1460;SDS011;724;49.910;12.530;2022-08-03T00:36:19;4.00;;;3.80;;
1460;SDS011;724;49.910;12.530;2022-08-03T00:38:46;4.00;;;3.80;;
1460;SDS011;724;49.910;12.530;2022-08-03T00:41:13;3.70;;;3.50;;
1460;SDS011;724;49.910;12.530;2022-08-03T00:43:39;4.00;;;3.80;;
1460;SDS011;724;49.910;12.530;2022-08-03T00:46:08;4.07;;;3.87;;
1460;SDS011;724;49.910;12.530;2022-08-03T00:48:34;4.30;;;4.00;;
1460;SDS011;724;49.910;12.530;2022-08-03T00:51:02;4.00;;;3.80;;
1460;SDS011;724;49.910;12.530;2022-08-03T00:53:29;4.40;;;4.10;;
1460;SDS011;724;49.910;12.530;2022-08-03T00:55:56;3.80;;;3.60;;
1460;SDS011;724;49.910;12.530;2022-08-03T00:58:23;4.00;;;3.80;;
1460;SDS011;724;49.910;12.530;2022-08-03T01:00:50;3.60;;;3.40;;
1460;SDS011;724;49.910;12.530;2022-08-03T01:03:18;3.80;;;3.60;;
1460;SDS011;724;49.910;12.530;2022-08-03T01:05:52;3.90;;;3.70;;
1460;SDS011;724;49.910;12.530;2022-08-03T01:08:25;3.87;;;3.67;;
1460;SDS011;724;49.910;12.530;2022-08-03T01:10:59;4.00;;;3.80;;
1460;SDS011;724;49.910;12.530;2022-08-03T01:13:33;4.10;;;3.90;;
1460;SDS011;724;49.910;12.530;2022-08-03T01:16:11;3.67;;;3.47;;
1460;SDS011;724;49.910;12.530;2022-08-03T01:18:46;3.80;;;3.60;;
1460;SDS011;724;49.910;12.530;2022-08-03T01:21:19;4.00;;;3.80;;
1460;SDS011;724;49.910;12.530;2022-08-03T01:23:55;3.70;;;3.50;;
1460;SDS011;724;49.910;12.530;2022-08-03T01:26:36;4.00;;;3.80;;
1460;SDS011;724;49.910;12.530;2022-08-03T01:29:29;3.70;;;3.50;;
1460;SDS011;724;49.910;12.530;2022-08-03T01:32:14;3.90;;;3.70;;
1460;SDS011;724;49.910;12.530;2022-08-03T01:34:46;3.73;;;3.53;;
1460;SDS011;724;49.910;12.530;2022-08-03T01:37:18;3.63;;;3.43;;
1460;SDS011;724;49.910;12.530;2022-08-03T01:39:51;3.60;;;3.40;;
1460;SDS011;724;49.910;12.530;2022-08-03T01:42:21;3.80;;;3.60;;
1460;SDS011;724;49.910;12.530;2022-08-03T01:44:51;3.70;;;3.50;;
1460;SDS011;724;49.910;12.530;2022-08-03T01:47:19;3.60;;;3.40;;
1460;SDS011;724;49.910;12.530;2022-08-03T01:49:49;3.30;;;3.10;;
1460;SDS011;724;49.910;12.530;2022-08-03T01:52:17;3.90;;;3.70;;
1460;SDS011;724;49.910;12.530;2022-08-03T01:54:45;3.70;;;3.50;;
1460;SDS011;724;49.910;12.530;2022-08-03T01:57:15;3.80;;;3.60;;
1460;SDS011;724;49.910;12.530;2022-08-03T01:59:43;3.70;;;3.50;;
1460;SDS011;724;49.910;12.530;2022-08-03T02:02:14;3.40;;;3.20;;
1460;SDS011;724;49.910;12.530;2022-08-03T02:04:42;3.83;;;3.63;;
1460;SDS011;724;49.910;12.530;2022-08-03T02:07:10;3.50;;;3.30;;
1460;SDS011;724;49.910;12.530;2022-08-03T02:09:39;3.80;;;3.60;;
1460;SDS011;724;49.910;12.530;2022-08-03T02:12:08;4.03;;;3.83;;
1460;SDS011;724;49.910;12.530;2022-08-03T02:14:36;3.70;;;3.50;;
1460;SDS011;724;49.910;12.530;2022-08-03T02:17:06;4.10;;;3.90;;
1460;SDS011;724;49.910;12.530;2022-08-03T02:19:34;3.40;;;3.20;;
1460;SDS011;724;49.910;12.530;2022-08-03T02:22:02;3.30;;;3.10;;
1460;SDS011;724;49.910;12.530;2022-08-03T02:24:33;3.50;;;3.30;;
1460;SDS011;724;49.910;12.530;2022-08-03T02:27:00;3.60;;;3.40;;
1460;SDS011;724;49.910;12.530;2022-08-03T02:29:32;4.00;;;3.80;;
1460;SDS011;724;49.910;12.530;2022-08-03T02:32:01;3.80;;;3.60;;
1460;SDS011;724;49.910;12.530;2022-08-03T02:34:28;3.83;;;3.63;;
1460;SDS011;724;49.910;12.530;2022-08-03T02:37:00;4.43;;;4.13;;
1460;SDS011;724;49.910;12.530;2022-08-03T02:39:29;3.90;;;3.70;;
1460;SDS011;724;49.910;12.530;2022-08-03T02:41:58;3.80;;;3.60;;
1460;SDS011;724;49.910;12.530;2022-08-03T02:44:27;3.50;;;3.30;;
1460;SDS011;724;49.910;12.530;2022-08-03T02:46:58;4.00;;;3.80;;
1460;SDS011;724;49.910;12.530;2022-08-03T02:49:28;4.30;;;4.00;;
1460;SDS011;724;49.910;12.530;2022-08-03T02:51:56;3.87;;;3.67;;
1460;SDS011;724;49.910;12.530;2022-08-03T02:54:25;3.50;;;3.30;;
1460;SDS011;724;49.910;12.530;2022-08-03T02:56:53;3.90;;;3.70;;
1460;SDS011;724;49.910;12.530;2022-08-03T02:59:23;3.77;;;3.57;;
1460;SDS011;724;49.910;12.530;2022-08-03T03:01:50;4.10;;;3.90;;
1460;SDS011;724;49.910;12.530;2022-08-03T03:04:17;4.17;;;3.93;;
1460;SDS011;724;49.910;12.530;2022-08-03T03:06:45;3.90;;;3.70;;
1460;SDS011;724;49.910;12.530;2022-08-03T03:09:13;4.00;;;3.80;;
1460;SDS011;724;49.910;12.530;2022-08-03T03:11:42;3.67;;;3.47;;
1460;SDS011;724;49.910;12.530;2022-08-03T03:14:09;3.80;;;3.60;;
1460;SDS011;724;49.910;12.530;2022-08-03T03:16:37;4.00;;;3.80;;
1460;SDS011;724;49.910;12.530;2022-08-03T03:19:05;3.63;;;3.43;;
1460;SDS011;724;49.910;12.530;2022-08-03T03:21:33;3.70;;;3.50;;
1460;SDS011;724;49.910;12.530;2022-08-03T03:24:02;3.20;;;3.00;;
1460;SDS011;724;49.910;12.530;2022-08-03T03:26:32;3.37;;;3.17;;
1460;SDS011;724;49.910;12.530;2022-08-03T03:29:00;3.10;;;2.90;;
1460;SDS011;724;49.910;12.530;2022-08-03T03:31:28;3.40;;;3.20;;
1460;SDS011;724;49.910;12.530;2022-08-03T03:33:55;3.60;;;3.40;;
1460;SDS011;724;49.910;12.530;2022-08-03T03:36:23;3.70;;;3.50;;
1460;SDS011;724;49.910;12.530;2022-08-03T03:38:49;3.90;;;3.70;;
1460;SDS011;724;49.910;12.530;2022-08-03T03:41:16;3.80;;;3.60;;
1460;SDS011;724;49.910;12.530;2022-08-03T03:43:43;3.73;;;3.53;;
1460;SDS011;724;49.910;12.530;2022-08-03T03:46:12;3.50;;;3.30;;
1460;SDS011;724;49.910;12.530;2022-08-03T03:48:39;3.97;;;3.77;;
1460;SDS011;724;49.910;12.530;2022-08-03T03:51:06;4.40;;;4.10;;
1460;SDS011;724;49.910;12.530;2022-08-03T03:53:33;3.80;;;3.60;;
1460;SDS011;724;49.910;12.530;2022-08-03T03:56:00;4.00;;;3.80;;
1460;SDS011;724;49.910;12.530;2022-08-03T03:58:27;3.60;;;3.40;;
1460;SDS011;724;49.910;12.530;2022-08-03T04:00:53;4.30;;;4.00;;
1460;SDS011;724;49.910;12.530;2022-08-03T04:03:22;4.43;;;4.13;;
1460;SDS011;724;49.910;12.530;2022-08-03T04:05:48;4.00;;;3.80;;
1460;SDS011;724;49.910;12.530;2022-08-03T04:08:32;3.83;;;3.63;;
1460;SDS011;724;49.910;12.530;2022-08-03T04:11:17;4.40;;;4.10;;
1460;SDS011;724;49.910;12.530;2022-08-03T04:13:48;3.90;;;3.70;;
1460;SDS011;724;49.910;12.530;2022-08-03T04:16:18;3.70;;;3.50;;
1460;SDS011;724;49.910;12.530;2022-08-03T04:18:50;4.00;;;3.80;;
1460;SDS011;724;49.910;12.530;2022-08-03T04:21:20;3.30;;;3.10;;
1460;SDS011;724;49.910;12.530;2022-08-03T04:23:50;3.60;;;3.40;;
1460;SDS011;724;49.910;12.530;2022-08-03T04:26:20;3.80;;;3.60;;
1460;SDS011;724;49.910;12.530;2022-08-03T04:28:49;3.80;;;3.60;;
1460;SDS011;724;49.910;12.530;2022-08-03T04:31:17;3.80;;;3.60;;
1460;SDS011;724;49.910;12.530;2022-08-03T04:33:47;3.87;;;3.67;;
1460;SDS011;724;49.910;12.530;2022-08-03T04:36:18;3.80;;;3.60;;
1460;SDS011;724;49.910;12.530;2022-08-03T04:38:51;3.90;;;3.70;;
1460;SDS011;724;49.910;12.530;2022-08-03T04:41:23;4.00;;;3.80;;
1460;SDS011;724;49.910;12.530;2022-08-03T04:43:52;3.80;;;3.60;;
1460;SDS011;724;49.910;12.530;2022-08-03T04:46:20;3.57;;;3.37;;
1460;SDS011;724;49.910;12.530;2022-08-03T04:48:49;3.70;;;3.50;;
1460;SDS011;724;49.910;12.530;2022-08-03T04:51:18;3.90;;;3.70;;
1460;SDS011;724;49.910;12.530;2022-08-03T04:53:44;4.23;;;3.97;;
1460;SDS011;724;49.910;12.530;2022-08-03T04:56:11;3.90;;;3.70;;
1460;SDS011;724;49.910;12.530;2022-08-03T04:58:38;3.90;;;3.70;;
1460;SDS011;724;49.910;12.530;2022-08-03T05:01:05;4.00;;;3.80;;
1460;SDS011;724;49.910;12.530;2022-08-03T05:03:32;4.50;;;4.20;;
1460;SDS011;724;49.910;12.530;2022-08-03T05:05:58;4.10;;;3.90;;
1460;SDS011;724;49.910;12.530;2022-08-03T05:08:27;4.30;;;4.00;;
1460;SDS011;724;49.910;12.530;2022-08-03T05:10:54;3.93;;;3.73;;
1460;SDS011;724;49.910;12.530;2022-08-03T05:13:21;3.80;;;3.60;;
1460;SDS011;724;49.910;12.530;2022-08-03T05:15:48;4.00;;;3.80;;
1460;SDS011;724;49.910;12.530;2022-08-03T05:18:14;4.40;;;4.10;;
1460;SDS011;724;49.910;12.530;2022-08-03T05:20:41;4.50;;;4.20;;
1460;SDS011;724;49.910;12.530;2022-08-03T05:23:08;4.50;;;4.20;;
1460;SDS011;724;49.910;12.530;2022-08-03T05:25:36;4.43;;;4.13;;
1460;SDS011;724;49.910;12.530;2022-08-03T05:28:03;4.80;;;4.50;;
1460;SDS011;724;49.910;12.530;2022-08-03T05:30:30;4.43;;;4.13;;
1460;SDS011;724;49.910;12.530;2022-08-03T05:32:56;4.10;;;3.90;;
1460;SDS011;724;49.910;12.530;2022-08-03T05:35:23;4.40;;;4.10;;
1460;SDS011;724;49.910;12.530;2022-08-03T05:37:52;4.90;;;4.60;;
1460;SDS011;724;49.910;12.530;2022-08-03T05:40:19;4.60;;;4.30;;
1460;SDS011;724;49.910;12.530;2022-08-03T05:42:52;5.03;;;4.73;;
1460;SDS011;724;49.910;12.530;2022-08-03T05:45:19;5.60;;;5.30;;
1460;SDS011;724;49.910;12.530;2022-08-03T05:47:46;5.63;;;5.33;;
1460;SDS011;724;49.910;12.530;2022-08-03T05:50:15;5.80;;;5.50;;
1460;SDS011;724;49.910;12.530;2022-08-03T05:52:43;5.50;;;5.20;;
1460;SDS011;724;49.910;12.530;2022-08-03T05:55:10;5.53;;;5.23;;
1460;SDS011;724;49.910;12.530;2022-08-03T05:57:38;5.93;;;5.63;;
1460;SDS011;724;49.910;12.530;2022-08-03T06:00:08;5.97;;;5.67;;
1460;SDS011;724;49.910;12.530;2022-08-03T06:02:37;5.63;;;5.33;;
1460;SDS011;724;49.910;12.530;2022-08-03T06:05:04;5.80;;;5.50;;
1460;SDS011;724;49.910;12.530;2022-08-03T06:07:32;6.17;;;5.87;;
1460;SDS011;724;49.910;12.530;2022-08-03T06:09:59;5.80;;;5.50;;
1460;SDS011;724;49.910;12.530;2022-08-03T06:12:27;6.00;;;5.70;;
1460;SDS011;724;49.910;12.530;2022-08-03T06:14:53;6.40;;;6.00;;
1460;SDS011;724;49.910;12.530;2022-08-03T06:17:22;6.77;;;6.37;;
1460;SDS011;724;49.910;12.530;2022-08-03T06:19:50;6.67;;;6.27;;
1460;SDS011;724;49.910;12.530;2022-08-03T06:22:17;6.77;;;6.37;;
1460;SDS011;724;49.910;12.530;2022-08-03T06:24:44;6.70;;;6.30;;
1460;SDS011;724;49.910;12.530;2022-08-03T06:27:10;6.93;;;6.53;;
1460;SDS011;724;49.910;12.530;2022-08-03T06:29:37;6.70;;;6.30;;
1460;SDS011;724;49.910;12.530;2022-08-03T06:32:04;6.80;;;6.40;;
1460;SDS011;724;49.910;12.530;2022-08-03T06:34:32;7.03;;;6.63;;
1460;SDS011;724;49.910;12.530;2022-08-03T06:36:59;7.10;;;6.70;;
1460;SDS011;724;49.910;12.530;2022-08-03T06:39:25;7.20;;;6.80;;
1460;SDS011;724;49.910;12.530;2022-08-03T06:41:52;7.70;;;7.30;;
1460;SDS011;724;49.910;12.530;2022-08-03T06:44:19;7.40;;;7.00;;
1460;SDS011;724;49.910;12.530;2022-08-03T06:46:46;7.30;;;6.90;;
1460;SDS011;724;49.910;12.530;2022-08-03T06:49:12;7.23;;;6.83;;
1460;SDS011;724;49.910;12.530;2022-08-03T06:51:40;7.70;;;7.30;;
1460;SDS011;724;49.910;12.530;2022-08-03T06:54:07;7.60;;;7.20;;
1460;SDS011;724;49.910;12.530;2022-08-03T06:56:34;7.87;;;7.47;;
1460;SDS011;724;49.910;12.530;2022-08-03T06:59:00;8.07;;;7.67;;
1460;SDS011;724;49.910;12.530;2022-08-03T07:01:27;7.80;;;7.40;;
1460;SDS011;724;49.910;12.530;2022-08-03T07:03:54;8.17;;;7.77;;
1460;SDS011;724;49.910;12.530;2022-08-03T07:06:21;8.17;;;7.77;;
1460;SDS011;724;49.910;12.530;2022-08-03T07:08:49;8.10;;;7.70;;
1460;SDS011;724;49.910;12.530;2022-08-03T07:11:15;7.60;;;7.20;;
1460;SDS011;724;49.910;12.530;2022-08-03T07:13:42;8.43;;;7.97;;
1460;SDS011;724;49.910;12.530;2022-08-03T07:16:09;7.70;;;7.30;;
1460;SDS011;724;49.910;12.530;2022-08-03T07:18:36;7.10;;;6.70;;
1460;SDS011;724;49.910;12.530;2022-08-03T07:21:03;7.57;;;7.17;;
1460;SDS011;724;49.910;12.530;2022-08-03T07:23:32;8.10;;;7.70;;
1460;SDS011;724;49.910;12.530;2022-08-03T07:26:00;7.60;;;7.20;;
1460;SDS011;724;49.910;12.530;2022-08-03T07:28:27;7.97;;;7.57;;
1460;SDS011;724;49.910;12.530;2022-08-03T07:30:54;7.80;;;7.40;;
1460;SDS011;724;49.910;12.530;2022-08-03T07:33:21;8.00;;;7.60;;
1460;SDS011;724;49.910;12.530;2022-08-03T07:35:48;8.00;;;7.60;;
1460;SDS011;724;49.910;12.530;2022-08-03T07:38:15;7.80;;;7.40;;
1460;SDS011;724;49.910;12.530;2022-08-03T07:40:43;7.70;;;7.30;;
1460;SDS011;724;49.910;12.530;2022-08-03T07:43:11;8.43;;;7.97;;
1460;SDS011;724;49.910;12.530;2022-08-03T07:45:38;8.03;;;7.63;;
1460;SDS011;724;49.910;12.530;2022-08-03T07:48:04;8.10;;;7.70;;
1460;SDS011;724;49.910;12.530;2022-08-03T07:50:31;7.90;;;7.50;;
1460;SDS011;724;49.910;12.530;2022-08-03T07:52:58;7.73;;;7.33;;
1460;SDS011;724;49.910;12.530;2022-08-03T07:55:24;7.40;;;7.00;;
1460;SDS011;724;49.910;12.530;2022-08-03T07:57:59;7.70;;;7.30;;
1460;SDS011;724;49.910;12.530;2022-08-03T08:00:28;7.70;;;7.30;;
1460;SDS011;724;49.910;12.530;2022-08-03T08:02:55;7.80;;;7.40;;
1460;SDS011;724;49.910;12.530;2022-08-03T08:05:22;7.67;;;7.27;;
1460;SDS011;724;49.910;12.530;2022-08-03T08:07:48;7.40;;;7.00;;
1460;SDS011;724;49.910;12.530;2022-08-03T08:10:15;6.90;;;6.50;;
1460;SDS011;724;49.910;12.530;2022-08-03T08:12:42;7.40;;;7.00;;
1460;SDS011;724;49.910;12.530;2022-08-03T08:15:08;7.50;;;7.10;;
1460;SDS011;724;49.910;12.530;2022-08-03T08:17:46;7.47;;;7.07;;
1460;SDS011;724;49.910;12.530;2022-08-03T08:20:15;7.80;;;7.40;;
1460;SDS011;724;49.910;12.530;2022-08-03T08:22:44;7.27;;;6.87;;
1460;SDS011;724;49.910;12.530;2022-08-03T08:25:13;7.50;;;7.10;;
1460;SDS011;724;49.910;12.530;2022-08-03T08:27:41;7.20;;;6.80;;
1460;SDS011;724;49.910;12.530;2022-08-03T08:30:09;7.80;;;7.40;;
1460;SDS011;724;49.910;12.530;2022-08-03T08:32:36;7.80;;;7.40;;
1460;SDS011;724;49.910;12.530;2022-08-03T08:35:05;7.40;;;7.00;;
1460;SDS011;724;49.910;12.530;2022-08-03T08:37:33;6.83;;;6.43;;
1460;SDS011;724;49.910;12.530;2022-08-03T08:40:01;7.33;;;6.93;;
1460;SDS011;724;49.910;12.530;2022-08-03T08:42:28;7.10;;;6.70;;
1460;SDS011;724;49.910;12.530;2022-08-03T08:44:56;7.57;;;7.17;;
1460;SDS011;724;49.910;12.530;2022-08-03T08:47:23;7.40;;;7.00;;
1460;SDS011;724;49.910;12.530;2022-08-03T08:49:51;6.63;;;6.23;;
1460;SDS011;724;49.910;12.530;2022-08-03T08:52:22;7.63;;;7.23;;
1460;SDS011;724;49.910;12.530;2022-08-03T08:54:51;8.60;;;8.10;;
1460;SDS011;724;49.910;12.530;2022-08-03T08:57:21;7.80;;;7.40;;
1460;SDS011;724;49.910;12.530;2022-08-03T08:59:52;7.70;;;7.30;;
1460;SDS011;724;49.910;12.530;2022-08-03T09:02:21;8.60;;;8.10;;
1460;SDS011;724;49.910;12.530;2022-08-03T09:04:48;7.63;;;7.23;;
1460;SDS011;724;49.910;12.530;2022-08-03T09:07:15;8.60;;;8.10;;
1460;SDS011;724;49.910;12.530;2022-08-03T09:09:44;8.37;;;7.93;;
1460;SDS011;724;49.910;12.530;2022-08-03T09:12:10;8.00;;;7.60;;
1460;SDS011;724;49.910;12.530;2022-08-03T09:14:37;8.80;;;8.30;;
1460;SDS011;724;49.910;12.530;2022-08-03T09:17:04;8.30;;;7.90;;
1460;SDS011;724;49.910;12.530;2022-08-03T09:19:32;7.90;;;7.50;;
1460;SDS011;724;49.910;12.530;2022-08-03T09:22:06;7.60;;;7.20;;
1460;SDS011;724;49.910;12.530;2022-08-03T09:24:35;7.40;;;7.00;;
1460;SDS011;724;49.910;12.530;2022-08-03T09:27:09;7.80;;;7.40;;
1460;SDS011;724;49.910;12.530;2022-08-03T09:29:37;8.30;;;7.90;;
1460;SDS011;724;49.910;12.530;2022-08-03T09:32:07;8.50;;;8.00;;
1460;SDS011;724;49.910;12.530;2022-08-03T09:34:36;8.60;;;8.10;;
1460;SDS011;724;49.910;12.530;2022-08-03T09:37:02;8.90;;;8.40;;
1460;SDS011;724;49.910;12.530;2022-08-03T09:39:38;8.10;;;7.70;;
1460;SDS011;724;49.910;12.530;2022-08-03T09:42:07;9.30;;;8.80;;
1460;SDS011;724;49.910;12.530;2022-08-03T09:44:36;9.70;;;9.20;;
1460;SDS011;724;49.910;12.530;2022-08-03T09:47:04;9.70;;;9.20;;
1460;SDS011;724;49.910;12.530;2022-08-03T09:49:31;8.60;;;8.10;;
1460;SDS011;724;49.910;12.530;2022-08-03T09:51:59;8.20;;;7.80;;
1460;SDS011;724;49.910;12.530;2022-08-03T09:54:28;7.73;;;7.33;;
1460;SDS011;724;49.910;12.530;2022-08-03T09:56:55;8.27;;;7.87;;
1460;SDS011;724;49.910;12.530;2022-08-03T09:59:25;8.77;;;8.27;;
1460;SDS011;724;49.910;12.530;2022-08-03T10:01:55;8.37;;;7.93;;
1460;SDS011;724;49.910;12.530;2022-08-03T10:04:22;7.90;;;7.50;;
1460;SDS011;724;49.910;12.530;2022-08-03T10:07:03;8.17;;;7.77;;
1460;SDS011;724;49.910;12.530;2022-08-03T10:09:30;7.23;;;6.83;;
1460;SDS011;724;49.910;12.530;2022-08-03T10:12:05;7.40;;;7.00;;
1460;SDS011;724;49.910;12.530;2022-08-03T10:14:36;7.40;;;7.00;;
1460;SDS011;724;49.910;12.530;2022-08-03T10:17:04;8.00;;;7.60;;
1460;SDS011;724;49.910;12.530;2022-08-03T10:19:31;7.20;;;6.80;;
1460;SDS011;724;49.910;12.530;2022-08-03T10:22:00;7.57;;;7.17;;
1460;SDS011;724;49.910;12.530;2022-08-03T10:24:29;7.60;;;7.20;;
1460;SDS011;724;49.910;12.530;2022-08-03T10:27:00;6.93;;;6.53;;
1460;SDS011;724;49.910;12.530;2022-08-03T10:29:29;7.13;;;6.73;;
1460;SDS011;724;49.910;12.530;2022-08-03T10:32:03;6.70;;;6.30;;
1460;SDS011;724;49.910;12.530;2022-08-03T10:34:39;7.00;;;6.60;;
1460;SDS011;724;49.910;12.530;2022-08-03T10:37:09;7.10;;;6.70;;
1460;SDS011;724;49.910;12.530;2022-08-03T10:39:37;6.60;;;6.20;;
1460;SDS011;724;49.910;12.530;2022-08-03T10:42:17;7.00;;;6.60;;
1460;SDS011;724;49.910;12.530;2022-08-03T10:44:46;7.97;;;7.57;;
1460;SDS011;724;49.910;12.530;2022-08-03T10:47:19;7.50;;;7.10;;
1460;SDS011;724;49.910;12.530;2022-08-03T10:49:46;7.30;;;6.90;;
1460;SDS011;724;49.910;12.530;2022-08-03T10:52:14;7.60;;;7.20;;
1460;SDS011;724;49.910;12.530;2022-08-03T10:54:42;7.60;;;7.20;;
1460;SDS011;724;49.910;12.530;2022-08-03T10:57:46;6.90;;;6.50;;
1460;SDS011;724;49.910;12.530;2022-08-03T11:00:15;7.87;;;7.47;;
1460;SDS011;724;49.910;12.530;2022-08-03T11:05:35;8.90;;;8.40;;
1460;SDS011;724;49.910;12.530;2022-08-03T11:08:22;9.20;;;8.70;;
1460;SDS011;724;49.910;12.530;2022-08-03T11:10:57;7.67;;;7.27;;
1460;SDS011;724;49.910;12.530;2022-08-03T11:13:27;7.43;;;7.03;;
1460;SDS011;724;49.910;12.530;2022-08-03T11:15:58;7.43;;;7.03;;
1460;SDS011;724;49.910;12.530;2022-08-03T11:18:29;6.83;;;6.43;;
1460;SDS011;724;49.910;12.530;2022-08-03T11:20:57;6.70;;;6.30;;
1460;SDS011;724;49.910;12.530;2022-08-03T11:23:41;6.20;;;5.90;;
1460;SDS011;724;49.910;12.530;2022-08-03T11:26:14;5.93;;;5.63;;
1460;SDS011;724;49.910;12.530;2022-08-03T11:28:42;6.97;;;6.57;;
1460;SDS011;724;49.910;12.530;2022-08-03T11:34:23;6.77;;;6.37;;
1460;SDS011;724;49.910;12.530;2022-08-03T11:39:47;7.63;;;7.23;;
1460;SDS011;724;49.910;12.530;2022-08-03T11:45:14;7.10;;;6.70;;
1460;SDS011;724;49.910;12.530;2022-08-03T11:47:43;7.20;;;6.80;;
1460;SDS011;724;49.910;12.530;2022-08-03T11:50:12;6.80;;;6.40;;
1460;SDS011;724;49.910;12.530;2022-08-03T11:52:40;6.50;;;6.10;;
1460;SDS011;724;49.910;12.530;2022-08-03T11:55:07;6.80;;;6.40;;
1460;SDS011;724;49.910;12.530;2022-08-03T11:57:36;6.00;;;5.70;;
1460;SDS011;724;49.910;12.530;2022-08-03T12:00:03;6.90;;;6.50;;
1460;SDS011;724;49.910;12.530;2022-08-03T12:02:52;7.27;;;6.87;;
1460;SDS011;724;49.910;12.530;2022-08-03T12:05:24;6.70;;;6.30;;
1460;SDS011;724;49.910;12.530;2022-08-03T12:08:06;8.77;;;8.27;;
1460;SDS011;724;49.910;12.530;2022-08-03T12:10:34;8.57;;;8.07;;
1460;SDS011;724;49.910;12.530;2022-08-03T12:13:02;8.90;;;8.40;;
1460;SDS011;724;49.910;12.530;2022-08-03T12:15:32;8.50;;;8.00;;
1460;SDS011;724;49.910;12.530;2022-08-03T12:18:00;8.50;;;8.00;;
1460;SDS011;724;49.910;12.530;2022-08-03T12:20:30;8.10;;;7.70;;
1460;SDS011;724;49.910;12.530;2022-08-03T12:23:01;7.80;;;7.40;;
1460;SDS011;724;49.910;12.530;2022-08-03T12:25:29;8.10;;;7.70;;
1460;SDS011;724;49.910;12.530;2022-08-03T12:28:05;7.73;;;7.33;;
1460;SDS011;724;49.910;12.530;2022-08-03T12:30:34;7.80;;;7.40;;
1460;SDS011;724;49.910;12.530;2022-08-03T12:33:10;7.07;;;6.67;;
1460;SDS011;724;49.910;12.530;2022-08-03T12:35:49;8.13;;;7.73;;
1460;SDS011;724;49.910;12.530;2022-08-03T12:38:28;7.40;;;7.00;;
1460;SDS011;724;49.910;12.530;2022-08-03T12:40:56;7.83;;;7.43;;
1460;SDS011;724;49.910;12.530;2022-08-03T12:43:24;6.73;;;6.33;;
1460;SDS011;724;49.910;12.530;2022-08-03T12:45:51;6.77;;;6.37;;
1460;SDS011;724;49.910;12.530;2022-08-03T12:48:35;6.50;;;6.10;;
1460;SDS011;724;49.910;12.530;2022-08-03T12:51:10;6.20;;;5.90;;
1460;SDS011;724;49.910;12.530;2022-08-03T12:53:37;7.10;;;6.70;;
1460;SDS011;724;49.910;12.530;2022-08-03T12:56:04;7.20;;;6.80;;
1460;SDS011;724;49.910;12.530;2022-08-03T12:58:31;7.20;;;6.80;;
1460;SDS011;724;49.910;12.530;2022-08-03T13:00:59;7.20;;;6.80;;
1460;SDS011;724;49.910;12.530;2022-08-03T13:03:26;7.57;;;7.17;;
1460;SDS011;724;49.910;12.530;2022-08-03T13:05:53;6.83;;;6.43;;
1460;SDS011;724;49.910;12.530;2022-08-03T13:08:23;6.90;;;6.50;;
1460;SDS011;724;49.910;12.530;2022-08-03T13:10:50;6.20;;;5.90;;
1460;SDS011;724;49.910;12.530;2022-08-03T13:13:17;6.47;;;6.07;;
1460;SDS011;724;49.910;12.530;2022-08-03T13:16:02;6.47;;;6.07;;
1460;SDS011;724;49.910;12.530;2022-08-03T13:18:29;7.03;;;6.63;;
1460;SDS011;724;49.910;12.530;2022-08-03T13:20:56;7.03;;;6.63;;
1460;SDS011;724;49.910;12.530;2022-08-03T13:23:24;6.87;;;6.47;;
1460;SDS011;724;49.910;12.530;2022-08-03T13:25:51;7.03;;;6.63;;
1460;SDS011;724;49.910;12.530;2022-08-03T13:28:17;6.80;;;6.40;;
1460;SDS011;724;49.910;12.530;2022-08-03T13:30:44;6.50;;;6.10;;
1460;SDS011;724;49.910;12.530;2022-08-03T13:33:11;6.80;;;6.40;;
1460;SDS011;724;49.910;12.530;2022-08-03T13:35:37;6.83;;;6.43;;
1460;SDS011;724;49.910;12.530;2022-08-03T13:38:05;7.37;;;6.97;;
1460;SDS011;724;49.910;12.530;2022-08-03T13:40:34;7.20;;;6.80;;
1460;SDS011;724;49.910;12.530;2022-08-03T13:43:02;6.57;;;6.17;;
1460;SDS011;724;49.910;12.530;2022-08-03T13:45:29;6.50;;;6.10;;
1460;SDS011;724;49.910;12.530;2022-08-03T13:47:55;6.90;;;6.50;;
1460;SDS011;724;49.910;12.530;2022-08-03T13:50:22;6.60;;;6.20;;
1460;SDS011;724;49.910;12.530;2022-08-03T13:52:49;6.27;;;5.93;;
1460;SDS011;724;49.910;12.530;2022-08-03T13:55:16;6.40;;;6.00;;
1460;SDS011;724;49.910;12.530;2022-08-03T13:57:44;6.73;;;6.33;;
1460;SDS011;724;49.910;12.530;2022-08-03T14:00:11;6.40;;;6.00;;
1460;SDS011;724;49.910;12.530;2022-08-03T14:02:39;6.50;;;6.10;;
1460;SDS011;724;49.910;12.530;2022-08-03T14:05:06;5.80;;;5.50;;
1460;SDS011;724;49.910;12.530;2022-08-03T14:07:33;6.43;;;6.03;;
1460;SDS011;724;49.910;12.530;2022-08-03T14:10:00;6.70;;;6.30;;
1460;SDS011;724;49.910;12.530;2022-08-03T14:12:27;6.40;;;6.00;;
1460;SDS011;724;49.910;12.530;2022-08-03T14:14:55;6.57;;;6.17;;
1460;SDS011;724;49.910;12.530;2022-08-03T14:17:21;6.00;;;5.70;;
1460;SDS011;724;49.910;12.530;2022-08-03T14:19:48;6.40;;;6.00;;
1460;SDS011;724;49.910;12.530;2022-08-03T14:22:15;6.40;;;6.00;;
1460;SDS011;724;49.910;12.530;2022-08-03T14:24:42;5.63;;;5.33;;
1460;SDS011;724;49.910;12.530;2022-08-03T14:27:09;6.50;;;6.10;;
1460;SDS011;724;49.910;12.530;2022-08-03T14:29:35;6.53;;;6.13;;
1460;SDS011;724;49.910;12.530;2022-08-03T14:32:04;7.57;;;7.17;;
1460;SDS011;724;49.910;12.530;2022-08-03T14:34:31;7.43;;;7.03;;
1460;SDS011;724;49.910;12.530;2022-08-03T14:36:58;7.50;;;7.10;;
1460;SDS011;724;49.910;12.530;2022-08-03T14:39:24;7.63;;;7.23;;
1460;SDS011;724;49.910;12.530;2022-08-03T14:41:51;7.30;;;6.90;;
1460;SDS011;724;49.910;12.530;2022-08-03T14:44:18;7.27;;;6.87;;
1460;SDS011;724;49.910;12.530;2022-08-03T14:46:45;7.07;;;6.67;;
1460;SDS011;724;49.910;12.530;2022-08-03T14:49:13;7.77;;;7.37;;
1460;SDS011;724;49.910;12.530;2022-08-03T14:51:39;7.50;;;7.10;;
1460;SDS011;724;49.910;12.530;2022-08-03T14:54:06;7.40;;;7.00;;
1460;SDS011;724;49.910;12.530;2022-08-03T14:56:33;7.23;;;6.83;;
1460;SDS011;724;49.910;12.530;2022-08-03T14:59:00;7.33;;;6.93;;
1460;SDS011;724;49.910;12.530;2022-08-03T15:01:26;7.20;;;6.80;;
1460;SDS011;724;49.910;12.530;2022-08-03T15:03:53;6.90;;;6.50;;
1460;SDS011;724;49.910;12.530;2022-08-03T15:06:21;7.47;;;7.07;;
1460;SDS011;724;49.910;12.530;2022-08-03T15:08:48;7.37;;;6.97;;
1460;SDS011;724;49.910;12.530;2022-08-03T15:11:15;7.43;;;7.03;;
1460;SDS011;724;49.910;12.530;2022-08-03T15:13:41;7.77;;;7.37;;
1460;SDS011;724;49.910;12.530;2022-08-03T15:16:08;7.60;;;7.20;;
1460;SDS011;724;49.910;12.530;2022-08-03T15:18:35;7.23;;;6.83;;
1460;SDS011;724;49.910;12.530;2022-08-03T15:21:02;7.73;;;7.33;;
1460;SDS011;724;49.910;12.530;2022-08-03T15:23:30;7.33;;;6.93;;
1460;SDS011;724;49.910;12.530;2022-08-03T15:25:57;6.70;;;6.30;;
1460;SDS011;724;49.910;12.530;2022-08-03T15:28:23;7.03;;;6.63;;
1460;SDS011;724;49.910;12.530;2022-08-03T15:30:50;7.20;;;6.80;;
1460;SDS011;724;49.910;12.530;2022-08-03T15:33:17;7.10;;;6.70;;
1460;SDS011;724;49.910;12.530;2022-08-03T15:35:44;7.60;;;7.20;;
1460;SDS011;724;49.910;12.530;2022-08-03T15:38:11;7.10;;;6.70;;